createdAt,value
2023-02-22T00:01:35.875Z,5.90
2023-02-22T00:04:05.778Z,5.83
2023-02-22T00:06:33.758Z,5.73
2023-02-22T00:09:02.597Z,7.03
2023-02-22T00:11:31.647Z,5.77
2023-02-22T00:13:59.010Z,6.07
2023-02-22T00:16:26.843Z,6.77
2023-02-22T00:18:53.990Z,7.33
2023-02-22T00:21:21.819Z,8.27
2023-02-22T00:23:49.762Z,7.93
2023-02-22T00:26:20.247Z,7.87
2023-02-22T00:28:49.589Z,7.10
2023-02-22T00:31:17.624Z,7.57
2023-02-22T00:33:45.166Z,7.13
2023-02-22T00:36:13.291Z,7.43
2023-02-22T00:38:41.318Z,6.53
2023-02-22T00:41:08.877Z,8.53
2023-02-22T00:43:36.007Z,7.83
2023-02-22T00:46:03.734Z,9.13
2023-02-22T00:48:30.965Z,8.77
2023-02-22T00:50:57.973Z,10.53
2023-02-22T00:53:25.970Z,10.60
2023-02-22T00:55:53.399Z,10.27
2023-02-22T00:58:21.447Z,10.47
2023-02-22T01:00:49.179Z,10.83
2023-02-22T01:03:18.942Z,11.67
2023-02-22T01:05:46.826Z,10.70
2023-02-22T01:08:16.031Z,8.63
2023-02-22T01:10:43.353Z,10.37
2023-02-22T01:13:12.630Z,8.77
2023-02-22T01:15:42.777Z,10.13
2023-02-22T01:18:12.708Z,9.93
2023-02-22T01:20:39.637Z,8.70
2023-02-22T01:23:08.139Z,9.20
2023-02-22T01:25:35.761Z,10.27
2023-02-22T01:28:04.339Z,9.43
2023-02-22T01:30:34.060Z,9.10
2023-02-22T01:33:03.019Z,9.47
2023-02-22T01:35:32.980Z,9.80
2023-02-22T01:38:00.382Z,9.33
2023-02-22T01:40:34.158Z,9.40
2023-02-22T01:43:03.894Z,8.07
2023-02-22T01:45:30.877Z,7.90
2023-02-22T01:48:06.355Z,9.10
2023-02-22T01:50:38.785Z,9.27
2023-02-22T01:53:08.051Z,8.30
2023-02-22T01:55:35.790Z,8.00
2023-02-22T01:58:04.482Z,7.43
2023-02-22T02:00:32.292Z,7.03
2023-02-22T02:03:03.179Z,7.60
2023-02-22T02:05:33.084Z,6.63
2023-02-22T02:08:05.957Z,6.73
2023-02-22T02:10:34.798Z,6.57
2023-02-22T02:13:04.075Z,7.93
2023-02-22T02:15:33.160Z,6.73
2023-02-22T02:18:06.226Z,7.77
2023-02-22T02:20:42.102Z,7.37
2023-02-22T02:23:17.452Z,7.70
2023-02-22T02:26:04.060Z,8.13
2023-02-22T02:28:34.269Z,7.60
2023-02-22T02:31:10.406Z,7.27
2023-02-22T02:33:57.729Z,8.07
2023-02-22T02:36:40.202Z,6.77
2023-02-22T02:39:15.859Z,6.70
2023-02-22T02:41:48.515Z,7.07
2023-02-22T02:44:22.625Z,6.63
2023-02-22T02:47:01.240Z,6.37
2023-02-22T02:49:48.282Z,6.70
2023-02-22T02:52:19.358Z,7.10
2023-02-22T02:54:47.104Z,6.87
2023-02-22T02:57:14.487Z,6.80
2023-02-22T02:59:41.393Z,7.20
2023-02-22T03:02:39.985Z,6.47
2023-02-22T03:05:12.991Z,5.97
2023-02-22T03:07:58.134Z,5.93
2023-02-22T03:10:37.972Z,5.27
2023-02-22T03:13:22.704Z,5.37
2023-02-22T03:16:17.634Z,5.37
2023-02-22T03:19:05.681Z,5.50
2023-02-22T03:21:43.490Z,6.80
2023-02-22T03:24:22.130Z,7.27
2023-02-22T03:27:03.039Z,6.47
2023-02-22T03:29:36.784Z,6.43
2023-02-22T03:32:08.025Z,6.77
2023-02-22T03:34:40.905Z,6.90
2023-02-22T03:37:16.009Z,6.30
2023-02-22T03:39:45.435Z,6.47
2023-02-22T03:42:21.413Z,6.93
2023-02-22T03:44:51.429Z,7.20
2023-02-22T03:47:28.967Z,5.90
2023-02-22T03:49:57.725Z,6.53
2023-02-22T03:52:24.754Z,7.00
2023-02-22T03:54:53.847Z,6.00
2023-02-22T03:57:29.075Z,5.53
2023-02-22T03:59:56.371Z,5.63
2023-02-22T04:02:23.926Z,5.53
2023-02-22T04:04:50.941Z,5.50
2023-02-22T04:07:18.198Z,6.90
2023-02-22T04:09:45.110Z,6.57
2023-02-22T04:12:12.062Z,6.13
2023-02-22T04:14:38.971Z,6.30
2023-02-22T04:17:05.975Z,6.10
2023-02-22T04:19:32.966Z,7.37
2023-02-22T04:21:59.853Z,8.37
2023-02-22T04:24:27.105Z,7.80
2023-02-22T04:26:55.351Z,7.70
2023-02-22T04:29:22.386Z,7.27
2023-02-22T04:31:49.407Z,7.20
2023-02-22T04:34:16.361Z,7.30
2023-02-22T04:36:44.757Z,8.10
2023-02-22T04:39:11.841Z,6.73
2023-02-22T04:41:38.941Z,8.40
2023-02-22T04:44:06.014Z,6.97
2023-02-22T04:46:33.036Z,6.80
2023-02-22T04:49:00.041Z,6.83
2023-02-22T04:51:27.060Z,8.53
2023-02-22T04:53:53.979Z,6.90
2023-02-22T04:56:21.065Z,6.90
2023-02-22T04:58:48.145Z,6.63
2023-02-22T05:01:16.730Z,7.37
2023-02-22T05:03:44.111Z,6.73
2023-02-22T05:06:12.537Z,8.10
2023-02-22T05:08:39.540Z,7.47
2023-02-22T05:11:06.636Z,7.10
2023-02-22T05:13:33.605Z,6.90
2023-02-22T05:16:00.636Z,6.67
2023-02-22T05:18:27.566Z,7.20
2023-02-22T05:20:54.584Z,8.30
2023-02-22T05:23:21.608Z,7.40
2023-02-22T05:25:48.549Z,6.80
2023-02-22T05:28:16.978Z,6.83
2023-02-22T05:30:44.017Z,6.77
2023-02-22T05:33:11.153Z,6.70
2023-02-22T05:35:38.239Z,6.57
2023-02-22T05:38:06.483Z,6.03
2023-02-22T05:40:33.596Z,7.07
2023-02-22T05:43:02.276Z,7.40
2023-02-22T05:45:29.785Z,6.90
2023-02-22T05:47:56.936Z,6.67
2023-02-22T05:50:24.822Z,6.40
2023-02-22T05:52:52.240Z,6.87
2023-02-22T05:55:21.465Z,6.47
2023-02-22T05:57:48.879Z,6.30
2023-02-22T06:00:26.410Z,6.37
2023-02-22T06:02:57.785Z,5.93
2023-02-22T06:05:25.506Z,5.87
2023-02-22T06:07:52.903Z,6.73
2023-02-22T06:10:20.295Z,7.00
2023-02-22T06:12:49.368Z,6.00
2023-02-22T06:15:17.573Z,6.33
2023-02-22T06:17:45.080Z,7.07
2023-02-22T06:20:14.006Z,5.87
2023-02-22T06:22:42.176Z,6.23
2023-02-22T06:25:09.789Z,6.73
2023-02-22T06:27:37.483Z,6.50
2023-02-22T06:30:05.198Z,7.07
2023-02-22T06:32:32.437Z,6.70
2023-02-22T06:34:59.461Z,6.67
2023-02-22T06:37:26.447Z,6.53
2023-02-22T06:39:53.343Z,6.97
2023-02-22T06:42:20.295Z,7.23
2023-02-22T06:44:47.195Z,7.03
2023-02-22T06:47:14.152Z,7.07
2023-02-22T06:49:41.116Z,6.87
2023-02-22T06:52:09.533Z,6.97
2023-02-22T06:54:37.422Z,7.13
2023-02-22T06:57:04.478Z,6.90
2023-02-22T06:59:31.621Z,7.13
2023-02-22T07:01:59.317Z,7.10
2023-02-22T07:04:26.230Z,7.93
2023-02-22T07:06:53.310Z,8.03
2023-02-22T07:09:20.534Z,7.77
2023-02-22T07:11:47.637Z,8.50
2023-02-22T07:14:17.613Z,7.47
2023-02-22T07:16:44.566Z,8.20
2023-02-22T07:19:11.601Z,10.03
2023-02-22T07:21:38.701Z,9.50
2023-02-22T07:24:05.756Z,8.37
2023-02-22T07:26:39.732Z,8.80
2023-02-22T07:29:07.075Z,9.97
2023-02-22T07:31:38.443Z,11.60
2023-02-22T07:34:05.362Z,10.30
2023-02-22T07:36:32.483Z,10.60
2023-02-22T07:38:59.388Z,9.93
2023-02-22T07:41:26.552Z,9.10
2023-02-22T07:43:53.524Z,8.63
2023-02-22T07:46:20.650Z,10.53
2023-02-22T07:48:47.645Z,11.93
2023-02-22T07:51:17.204Z,14.73
2023-02-22T07:53:44.262Z,12.47
2023-02-22T07:56:11.256Z,15.63
2023-02-22T07:58:38.283Z,12.73
2023-02-22T08:01:05.474Z,10.10
2023-02-22T08:03:36.600Z,9.33
2023-02-22T08:06:05.755Z,10.67
2023-02-22T08:08:32.850Z,8.40
2023-02-22T08:10:59.853Z,9.33
2023-02-22T08:13:26.823Z,8.63
2023-02-22T08:15:54.756Z,8.57
2023-02-22T08:18:22.756Z,8.17
2023-02-22T08:20:52.170Z,9.67
2023-02-22T08:23:20.703Z,9.13
2023-02-22T08:25:47.816Z,10.57
2023-02-22T08:28:18.153Z,9.67
2023-02-22T08:30:45.118Z,9.43
2023-02-22T08:33:16.039Z,10.68
2023-02-22T08:35:43.777Z,9.23
2023-02-22T08:38:18.727Z,9.65
2023-02-22T08:40:45.706Z,8.03
2023-02-22T08:43:13.977Z,9.18
2023-02-22T08:45:41.327Z,9.02
2023-02-22T08:48:08.385Z,9.27
2023-02-22T08:50:35.771Z,8.00
2023-02-22T08:53:05.099Z,8.70
2023-02-22T08:55:35.289Z,9.27
2023-02-22T08:58:03.506Z,7.80
2023-02-22T09:00:35.315Z,8.13
2023-02-22T09:03:08.040Z,8.25
2023-02-22T09:05:34.990Z,8.68
2023-02-22T09:08:01.999Z,8.57
2023-02-22T09:10:31.216Z,8.30
2023-02-22T09:13:00.965Z,8.60
2023-02-22T09:15:28.568Z,8.27
2023-02-22T09:17:56.270Z,7.85
2023-02-22T09:20:27.473Z,8.25
2023-02-22T09:22:55.361Z,7.47
2023-02-22T09:25:23.113Z,7.15
2023-02-22T09:27:53.843Z,8.40
2023-02-22T09:30:33.501Z,7.32
2023-02-22T09:33:04.225Z,7.03
2023-02-22T09:35:31.578Z,7.30
2023-02-22T09:38:00.480Z,7.28
2023-02-22T09:40:30.952Z,7.40
2023-02-22T09:43:23.080Z,7.18
2023-02-22T09:46:19.521Z,7.10
2023-02-22T09:49:05.485Z,7.95
2023-02-22T09:52:01.417Z,6.68
2023-02-22T09:54:45.300Z,8.77
2023-02-22T09:57:21.568Z,6.88
2023-02-22T10:00:01.204Z,6.88
2023-02-22T10:02:32.796Z,6.53
2023-02-22T10:05:06.685Z,6.80
2023-02-22T10:07:47.235Z,5.72
2023-02-22T10:10:22.529Z,5.65
2023-02-22T10:12:49.462Z,5.65
2023-02-22T10:15:52.475Z,4.53
2023-02-22T10:18:49.654Z,5.05
2023-02-22T10:21:42.653Z,4.57
2023-02-22T10:24:24.851Z,4.90
2023-02-22T10:26:54.235Z,4.90
2023-02-22T10:29:40.757Z,4.70
2023-02-22T10:32:17.274Z,4.95
2023-02-22T10:34:51.689Z,5.07
2023-02-22T10:37:28.479Z,4.72
2023-02-22T10:40:32.284Z,5.20
2023-02-22T10:43:08.124Z,4.43
2023-02-22T10:45:37.298Z,4.50
2023-02-22T10:48:12.164Z,4.22
2023-02-22T10:50:42.436Z,4.53
2023-02-22T10:53:10.996Z,4.55
2023-02-22T10:56:16.942Z,3.83
2023-02-22T10:59:02.707Z,4.45
2023-02-22T11:01:32.748Z,4.25
2023-02-22T11:04:11.011Z,4.00
2023-02-22T11:06:40.941Z,4.40
2023-02-22T11:09:23.444Z,4.63
2023-02-22T11:12:08.236Z,4.47
2023-02-22T11:14:35.204Z,3.90
2023-02-22T11:17:08.070Z,3.47
2023-02-22T11:19:38.344Z,3.08
2023-02-22T11:22:09.662Z,3.42
2023-02-22T11:25:03.394Z,3.40
2023-02-22T11:27:38.268Z,3.35
2023-02-22T11:30:21.975Z,2.80
2023-02-22T11:33:17.760Z,3.10
2023-02-22T11:35:54.054Z,3.15
2023-02-22T11:38:37.911Z,2.95
2023-02-22T11:41:04.877Z,3.50
2023-02-22T11:43:32.030Z,4.07
2023-02-22T11:46:05.023Z,3.53
2023-02-22T11:48:36.757Z,3.92
2023-02-22T11:51:14.454Z,4.10
2023-02-22T11:54:03.829Z,3.50
2023-02-22T11:56:40.296Z,3.65
2023-02-22T11:59:23.960Z,3.17
2023-02-22T12:02:37.462Z,2.92
2023-02-22T12:05:25.428Z,2.85
2023-02-22T12:08:20.015Z,3.30
2023-02-22T12:11:07.149Z,3.20
2023-02-22T12:13:43.156Z,2.95
2023-02-22T12:16:28.535Z,3.00
2023-02-22T12:19:13.756Z,2.50
2023-02-22T12:21:47.420Z,2.60
2023-02-22T12:24:36.781Z,3.13
2023-02-22T12:27:10.936Z,2.70
2023-02-22T12:29:50.288Z,3.17
2023-02-22T12:32:45.895Z,3.22
2023-02-22T12:35:21.088Z,2.50
2023-02-22T12:38:24.801Z,2.47
2023-02-22T12:40:58.320Z,2.03
2023-02-22T12:43:39.032Z,1.80
2023-02-22T12:46:32.486Z,3.10
2023-02-22T12:49:24.817Z,3.08
2023-02-22T12:51:57.666Z,2.45
2023-02-22T12:54:40.017Z,2.08
2023-02-22T12:57:12.387Z,2.72
2023-02-22T12:59:44.253Z,2.47
2023-02-22T13:02:44.053Z,2.28
2023-02-22T13:05:17.920Z,2.05
2023-02-22T13:08:05.391Z,2.35
2023-02-22T13:11:15.063Z,1.70
2023-02-22T13:14:08.640Z,1.63
2023-02-22T13:16:52.831Z,2.05
2023-02-22T13:19:44.541Z,2.17
2023-02-22T13:22:20.887Z,2.28
2023-02-22T13:25:12.332Z,2.30
2023-02-22T13:28:13.083Z,2.13
2023-02-22T13:30:49.170Z,2.50
2023-02-22T13:33:18.986Z,2.55
2023-02-22T13:35:59.571Z,3.97
2023-02-22T13:38:45.290Z,2.38
2023-02-22T13:41:22.384Z,2.30
2023-02-22T13:44:01.500Z,2.25
2023-02-22T13:46:50.836Z,2.45
2023-02-22T13:49:45.151Z,2.83
2023-02-22T13:52:18.063Z,2.13
2023-02-22T13:54:51.505Z,2.15
2023-02-22T13:57:40.388Z,2.80
2023-02-22T14:00:16.185Z,2.88
2023-02-22T14:03:01.542Z,2.10
2023-02-22T14:05:46.612Z,2.67
2023-02-22T14:08:19.423Z,2.83
2023-02-22T14:10:46.441Z,3.08
2023-02-22T14:13:16.154Z,3.22
2023-02-22T14:16:01.171Z,3.05
2023-02-22T14:18:36.274Z,3.15
2023-02-22T14:21:09.985Z,3.30
2023-02-22T14:23:43.863Z,3.30
2023-02-22T14:26:18.961Z,3.58
2023-02-22T14:29:05.840Z,3.78
2023-02-22T14:31:41.048Z,3.50
2023-02-22T14:34:15.850Z,2.78
2023-02-22T14:36:51.447Z,2.92
2023-02-22T14:39:20.943Z,3.00
2023-02-22T14:42:01.876Z,3.28
2023-02-22T14:44:39.683Z,2.63
2023-02-22T14:47:14.334Z,1.63
2023-02-22T14:49:45.015Z,1.40
2023-02-22T14:52:24.816Z,1.17
2023-02-22T14:55:13.786Z,0.90
2023-02-22T14:57:50.052Z,1.30
2023-02-22T15:00:23.339Z,0.98
2023-02-22T15:02:57.401Z,0.80
2023-02-22T15:05:27.218Z,1.13
2023-02-22T15:08:03.785Z,1.00
2023-02-22T15:10:43.158Z,1.05
2023-02-22T15:13:24.004Z,1.20
2023-02-22T15:16:01.369Z,1.30
2023-02-22T15:18:47.759Z,1.25
2023-02-22T15:21:17.947Z,1.20
2023-02-22T15:23:50.022Z,1.15
2023-02-22T15:26:35.264Z,1.88
2023-02-22T15:29:08.352Z,1.85
2023-02-22T15:31:40.067Z,1.92
2023-02-22T15:34:11.427Z,2.05
2023-02-22T15:36:38.898Z,2.05
2023-02-22T15:39:08.895Z,2.25
2023-02-22T15:41:36.374Z,1.80
2023-02-22T15:44:23.269Z,2.35
2023-02-22T15:46:50.989Z,6.03
2023-02-22T15:49:21.035Z,2.38
2023-02-22T15:51:59.385Z,1.77
2023-02-22T15:54:28.019Z,1.55
2023-02-22T15:56:56.599Z,1.50
2023-02-22T15:59:30.565Z,1.73
2023-02-22T16:01:59.552Z,2.17
2023-02-22T16:04:30.247Z,2.22
2023-02-22T16:07:17.141Z,1.80
2023-02-22T16:09:51.496Z,2.03
2023-02-22T16:12:21.512Z,18.70
2023-02-22T16:14:50.104Z,17.95
2023-02-22T16:17:37.063Z,53.38
2023-02-22T16:20:13.435Z,5.07
2023-02-22T16:22:46.599Z,3.97
2023-02-22T16:25:19.326Z,11.32
2023-02-22T16:27:52.749Z,2.20
2023-02-22T16:30:25.838Z,2.17
2023-02-22T16:32:57.135Z,2.08
2023-02-22T16:35:29.130Z,2.25
2023-02-22T16:38:17.132Z,4.10
2023-02-22T16:40:54.697Z,2.50
2023-02-22T16:43:33.420Z,2.20
2023-02-22T16:46:01.884Z,2.25
2023-02-22T16:48:32.666Z,2.35
2023-02-22T16:51:06.454Z,2.17
2023-02-22T16:53:33.845Z,2.30
2023-02-22T16:56:05.929Z,3.08
2023-02-22T16:58:35.841Z,2.13
2023-02-22T17:01:02.995Z,2.03
2023-02-22T17:03:30.124Z,2.63
2023-02-22T17:05:57.172Z,2.05
2023-02-22T17:08:24.172Z,2.42
2023-02-22T17:10:55.264Z,3.30
2023-02-22T17:13:27.282Z,4.93
2023-02-22T17:15:55.106Z,3.15
2023-02-22T17:18:24.624Z,3.17
2023-02-22T17:20:52.991Z,14.02
2023-02-22T17:23:21.110Z,2.33
2023-02-22T17:25:56.497Z,2.42
2023-02-22T17:28:24.752Z,7.50
2023-02-22T17:30:53.342Z,3.38
2023-02-22T17:33:26.776Z,3.75
2023-02-22T17:35:56.004Z,3.85
2023-02-22T17:38:23.103Z,3.55
2023-02-22T17:40:54.931Z,3.00
2023-02-22T17:43:23.719Z,2.78
2023-02-22T17:45:50.729Z,2.60
2023-02-22T17:48:18.526Z,2.38
2023-02-22T17:50:47.168Z,4.97
2023-02-22T17:53:14.438Z,11.02
2023-02-22T17:55:42.565Z,5.18
2023-02-22T17:58:14.819Z,5.22
2023-02-22T18:00:49.907Z,3.78
2023-02-22T18:03:25.943Z,4.72
2023-02-22T18:05:57.699Z,3.65
2023-02-22T18:08:26.033Z,3.63
2023-02-22T18:10:56.518Z,2.60
2023-02-22T18:13:25.862Z,3.47
2023-02-22T18:15:53.927Z,2.97
2023-02-22T18:18:22.256Z,3.42
2023-02-22T18:20:51.593Z,2.50
2023-02-22T18:23:23.040Z,3.30
2023-02-22T18:26:09.297Z,3.90
2023-02-22T18:28:37.524Z,4.18
2023-02-22T18:31:09.202Z,3.72
2023-02-22T18:33:36.397Z,3.45
2023-02-22T18:36:03.642Z,3.15
2023-02-22T18:38:30.579Z,2.90
2023-02-22T18:41:02.619Z,3.25
2023-02-22T18:43:31.908Z,2.80
2023-02-22T18:46:07.013Z,3.30
2023-02-22T18:48:34.152Z,3.08
2023-02-22T18:51:02.490Z,2.75
2023-02-22T18:53:30.197Z,2.92
2023-02-22T18:55:57.288Z,3.17
2023-02-22T18:58:24.306Z,3.50
2023-02-22T19:00:51.220Z,3.03
2023-02-22T19:03:18.187Z,3.22
2023-02-22T19:05:45.108Z,2.90
2023-02-22T19:08:11.993Z,4.20
2023-02-22T19:10:39.154Z,2.73
2023-02-22T19:13:10.796Z,3.05
2023-02-22T19:15:38.569Z,4.15
2023-02-22T19:18:05.991Z,4.10
2023-02-22T19:20:33.453Z,4.43
2023-02-22T19:23:01.353Z,4.55
2023-02-22T19:25:29.184Z,4.75
2023-02-22T19:27:56.939Z,4.97
2023-02-22T19:30:24.994Z,5.05
2023-02-22T19:32:52.677Z,6.80
2023-02-22T19:35:28.352Z,7.43
2023-02-22T19:37:56.125Z,5.87
2023-02-22T19:40:23.336Z,5.88
2023-02-22T19:42:52.090Z,5.97
2023-02-22T19:45:20.107Z,5.70
2023-02-22T19:47:47.696Z,6.20
2023-02-22T19:50:18.734Z,6.60
2023-02-22T19:52:45.882Z,6.05
2023-02-22T19:55:12.904Z,6.93
2023-02-22T19:57:46.494Z,8.20
2023-02-22T20:00:24.521Z,7.93
2023-02-22T20:03:05.695Z,7.97
2023-02-22T20:05:37.272Z,7.80
2023-02-22T20:08:04.384Z,7.15
2023-02-22T20:10:33.020Z,8.33
2023-02-22T20:13:00.506Z,8.30
2023-02-22T20:15:28.517Z,8.30
2023-02-22T20:17:58.116Z,9.20
2023-02-22T20:20:25.810Z,8.50
2023-02-22T20:22:53.722Z,8.77
2023-02-22T20:25:20.928Z,8.83
2023-02-22T20:27:47.856Z,8.67
2023-02-22T20:30:18.157Z,9.73
2023-02-22T20:32:45.460Z,9.93
2023-02-22T20:35:12.516Z,9.47
2023-02-22T20:37:42.650Z,10.80
2023-02-22T20:40:10.261Z,13.68
2023-02-22T20:42:40.640Z,12.10
2023-02-22T20:45:09.733Z,12.10
2023-02-22T20:47:37.913Z,12.97
2023-02-22T20:50:05.867Z,12.90
2023-02-22T20:52:32.894Z,12.03
2023-02-22T20:55:01.118Z,13.53
2023-02-22T20:57:28.143Z,12.30
2023-02-22T20:59:55.761Z,12.57
2023-02-22T21:02:23.145Z,13.13
2023-02-22T21:04:50.250Z,11.97
2023-02-22T21:07:17.808Z,12.80
2023-02-22T21:09:44.939Z,13.27
2023-02-22T21:12:13.826Z,12.87
2023-02-22T21:14:44.427Z,13.33
2023-02-22T21:17:11.429Z,13.97
2023-02-22T21:19:38.434Z,14.23
2023-02-22T21:22:08.742Z,13.63
2023-02-22T21:24:37.116Z,13.93
2023-02-22T21:27:07.043Z,13.83
2023-02-22T21:29:35.625Z,13.27
2023-02-22T21:32:03.312Z,12.77
2023-02-22T21:34:30.470Z,13.23
2023-02-22T21:36:57.604Z,12.80
2023-02-22T21:39:28.544Z,12.60
2023-02-22T21:42:00.354Z,14.37
2023-02-22T21:44:28.710Z,15.43
2023-02-22T21:46:55.700Z,15.63
2023-02-22T21:49:23.329Z,13.77
2023-02-22T21:51:51.838Z,13.33
2023-02-22T21:54:19.328Z,14.83
2023-02-22T21:56:46.423Z,14.17
2023-02-22T21:59:20.180Z,13.77
2023-02-22T22:01:50.128Z,14.10
2023-02-22T22:04:21.053Z,13.85
2023-02-22T22:06:51.322Z,14.80
2023-02-22T22:09:19.252Z,14.90
2023-02-22T22:11:54.705Z,14.13
2023-02-22T22:14:26.780Z,15.93
2023-02-22T22:16:58.646Z,15.00
2023-02-22T22:19:27.199Z,16.27
2023-02-22T22:21:54.565Z,14.90
2023-02-22T22:24:22.986Z,16.23
2023-02-22T22:26:54.689Z,15.73
2023-02-22T22:29:23.797Z,17.03
2023-02-22T22:31:52.013Z,15.77
2023-02-22T22:34:19.618Z,17.23
2023-02-22T22:36:46.847Z,17.70
2023-02-22T22:39:13.910Z,16.23
2023-02-22T22:41:44.765Z,16.70
2023-02-22T22:44:15.420Z,16.23
2023-02-22T22:46:43.600Z,17.53
2023-02-22T22:49:13.329Z,18.20
2023-02-22T22:51:41.209Z,17.67
2023-02-22T22:54:09.578Z,18.00
2023-02-22T22:56:38.735Z,16.27
2023-02-22T22:59:07.733Z,18.77
2023-02-22T23:01:40.174Z,19.00
2023-02-22T23:04:10.472Z,18.35
2023-02-22T23:06:46.381Z,17.07
2023-02-22T23:09:25.634Z,16.10
2023-02-22T23:11:58.124Z,16.53
2023-02-22T23:14:31.288Z,16.77
2023-02-22T23:17:03.762Z,15.10
2023-02-22T23:19:35.934Z,15.43
2023-02-22T23:22:05.534Z,15.50
2023-02-22T23:24:36.334Z,16.00
2023-02-22T23:27:07.301Z,15.63
2023-02-22T23:29:38.563Z,15.50
2023-02-22T23:32:06.107Z,16.43
2023-02-22T23:34:35.982Z,16.45
2023-02-22T23:37:03.717Z,16.33
2023-02-22T23:39:30.676Z,16.70
2023-02-22T23:41:59.540Z,16.57
2023-02-22T23:44:27.623Z,16.03
2023-02-22T23:46:55.541Z,16.47
2023-02-22T23:49:25.161Z,15.03
2023-02-22T23:51:52.707Z,15.03
2023-02-22T23:54:21.169Z,16.00
2023-02-22T23:56:58.333Z,15.10
2023-02-22T23:59:26.860Z,14.43
